Time;durP1;ratioP1;P1;durP2;ratioP2;P2;SDS_P1;SDS_P2;PMS_P1;PMS_P2;Temp;Humidity;BMP_temperature;BMP_pressure;BME280_temperature;BME280_humidity;BME280_pressure;Samples;Min_cycle;Max_cycle;Signal;HPM_P1;HPM_P2
2023/12/13 00:00:09;;;;;;;;;;;9.30;99.90;;;;;;2630411;47;19957;-84
2023/12/13 00:02:42;;;;;;;;;;;9.20;99.90;;;;;;2630489;46;19942;-86
2023/12/13 00:05:12;;;;;;;;;;;9.20;99.90;;;;;;2630685;54;19951;-86
2023/12/13 00:07:41;;;;;;;;;;;9.60;99.90;;;;;;2630478;46;19942;-85
2023/12/13 00:10:11;;;;;;;;;;;9.30;99.90;;;;;;2630402;47;19927;-84
2023/12/13 00:12:41;;;;;;;;;;;9.10;99.90;;;;;;2630490;54;20769;-85
2023/12/13 00:15:12;;;;;;;;;;;9.30;99.90;;;;;;2630299;54;19927;-85
2023/12/13 00:17:44;;;;;;;;;;;9.20;99.90;;;;;;2619616;54;19942;-71
2023/12/13 00:20:14;;;;;;;;;;;9.40;99.90;;;;;;2616336;54;19938;-70
2023/12/13 00:22:43;;;;;;;;;;;9.20;99.90;;;;;;2615862;47;19938;-71
2023/12/13 00:25:13;;;;;;;;;;;9.10;99.90;;;;;;2616723;47;19950;-70
2023/12/13 00:27:43;;;;;;;;;;;9.10;99.90;;;;;;2616491;46;19986;-70
2023/12/13 00:30:13;;;;;;;;;;;9.20;99.90;;;;;;2616669;47;19946;-71
2023/12/13 00:32:46;;;;;;;;;;;9.20;99.90;;;;;;2616858;39;20397;-71
2023/12/13 00:35:15;;;;;;;;;;;9.20;99.90;;;;;;2616422;54;19957;-71
2023/12/13 00:37:45;;;;;;;;;;;9.10;99.90;;;;;;2616831;47;19939;-71
2023/12/13 00:40:15;;;;;;;;;;;9.10;99.90;;;;;;2617019;54;19938;-71
2023/12/13 00:42:45;;;;;;;;;;;9.10;99.90;;;;;;2617222;39;20346;-71
2023/12/13 00:45:15;;;;;;;;;;;9.10;99.90;;;;;;2617585;54;19944;-71
2023/12/13 00:47:47;;;;;;;;;;;9.10;99.90;;;;;;2616893;54;20458;-72
2023/12/13 00:50:17;;;;;;;;;;;9.20;99.90;;;;;;2616458;54;19968;-70
2023/12/13 00:52:46;;;;;;;;;;;9.20;99.90;;;;;;2616740;54;19946;-70
2023/12/13 00:55:16;;;;;;;;;;;9.20;99.90;;;;;;2617462;54;19989;-70
2023/12/13 00:57:46;;;;;;;;;;;9.20;99.90;;;;;;2616505;54;19946;-71
2023/12/13 01:00:16;;;;;;;;;;;9.20;99.90;;;;;;2617618;39;20382;-70
2023/12/13 01:02:48;;;;;;;;;;;9.20;99.90;;;;;;2616570;54;19953;-70
2023/12/13 01:05:18;;;;;;;;;;;9.30;99.90;;;;;;2616998;54;20434;-70
2023/12/13 01:07:48;;;;;;;;;;;9.20;99.90;;;;;;2616686;47;20016;-70
2023/12/13 01:10:19;;;;;;;;;;;9.20;99.90;;;;;;2616935;54;19941;-71
2023/12/13 01:12:49;;;;;;;;;;;9.20;99.90;;;;;;2616331;54;19947;-70
2023/12/13 01:15:19;;;;;;;;;;;9.20;99.90;;;;;;2616640;54;19950;-71
2023/12/13 01:17:51;;;;;;;;;;;9.30;99.90;;;;;;2617448;54;19950;-71
2023/12/13 01:20:21;;;;;;;;;;;9.30;99.90;;;;;;2617212;39;20360;-71
2023/12/13 01:22:51;;;;;;;;;;;9.30;99.90;;;;;;2617289;54;19947;-70
2023/12/13 01:25:20;;;;;;;;;;;9.30;99.90;;;;;;2618563;54;19989;-71
2023/12/13 01:27:50;;;;;;;;;;;9.30;99.90;;;;;;2616398;46;19951;-70
2023/12/13 01:30:20;;;;;;;;;;;9.30;99.90;;;;;;2617820;47;19950;-70
2023/12/13 01:32:52;;;;;;;;;;;9.30;99.90;;;;;;2616977;54;20607;-70
2023/12/13 01:35:22;;;;;;;;;;;9.30;99.90;;;;;;2615640;54;19947;-70
2023/12/13 01:37:51;;;;;;;;;;;9.30;99.90;;;;;;2617697;54;19954;-71
2023/12/13 01:40:21;;;;;;;;;;;9.30;99.90;;;;;;2617225;49;19942;-70
2023/12/13 01:42:51;;;;;;;;;;;9.30;99.90;;;;;;2617051;54;20476;-70
2023/12/13 01:45:21;;;;;;;;;;;9.30;99.90;;;;;;2617412;54;19958;-70
2023/12/13 01:47:53;;;;;;;;;;;9.10;99.90;;;;;;2617034;54;20018;-70
2023/12/13 01:50:26;;;;;;;;;;;9.30;99.90;;;;;;2616916;54;19946;-71
2023/12/13 01:52:56;;;;;;;;;;;9.30;99.90;;;;;;2616781;39;20481;-69
2023/12/13 01:55:26;;;;;;;;;;;9.30;99.90;;;;;;2616856;54;19954;-70
2023/12/13 01:57:55;;;;;;;;;;;9.30;99.90;;;;;;2617025;39;20365;-70
2023/12/13 02:00:25;;;;;;;;;;;9.30;99.90;;;;;;2617993;47;19946;-70
2023/12/13 02:02:58;;;;;;;;;;;9.30;99.90;;;;;;2617179;54;19939;-71
2023/12/13 02:05:28;;;;;;;;;;;9.40;99.90;;;;;;2616409;54;19982;-70
2023/12/13 02:07:58;;;;;;;;;;;9.30;99.90;;;;;;2616545;50;20002;-70
2023/12/13 02:10:28;;;;;;;;;;;9.20;99.90;;;;;;2616175;54;19946;-71
2023/12/13 02:12:57;;;;;;;;;;;9.20;99.90;;;;;;2616620;54;20025;-71
2023/12/13 02:15:27;;;;;;;;;;;9.20;99.90;;;;;;2618034;39;20368;-71
2023/12/13 02:18:00;;;;;;;;;;;9.20;99.90;;;;;;2616006;54;19953;-70
2023/12/13 02:20:29;;;;;;;;;;;9.20;99.90;;;;;;2616709;54;19947;-70
2023/12/13 02:23:02;;;;;;;;;;;9.20;99.90;;;;;;2617915;54;19950;-70
2023/12/13 02:25:34;;;;;;;;;;;9.20;99.90;;;;;;2617194;47;19949;-70
2023/12/13 02:28:04;;;;;;;;;;;9.30;99.90;;;;;;2617044;54;19975;-70
2023/12/13 02:30:34;;;;;;;;;;;9.10;99.90;;;;;;2616769;50;19951;-70
2023/12/13 02:33:04;;;;;;;;;;;9.10;99.90;;;;;;2617205;54;20468;-70
2023/12/13 02:35:34;;;;;;;;;;;9.10;99.90;;;;;;2617913;54;19965;-70
2023/12/13 02:38:06;;;;;;;;;;;9.10;99.90;;;;;;2617547;54;19947;-71
2023/12/13 02:40:35;;;;;;;;;;;9.10;99.90;;;;;;2617649;39;20354;-71
2023/12/13 02:43:05;;;;;;;;;;;9.10;99.90;;;;;;2616455;54;19960;-70
2023/12/13 02:45:35;;;;;;;;;;;9.00;99.90;;;;;;2618204;54;19954;-71
2023/12/13 02:48:04;;;;;;;;;;;9.10;99.90;;;;;;2618848;54;19939;-71
2023/12/13 02:53:51;;;;;;;;;;;9.00;99.90;;;;;;2614900;47;20425;-71
2023/12/13 02:56:20;;;;;;;;;;;9.00;99.90;;;;;;2616388;54;19953;-71
2023/12/13 02:58:50;;;;;;;;;;;9.00;99.90;;;;;;2617189;54;19950;-71
2023/12/13 03:01:20;;;;;;;;;;;9.00;99.90;;;;;;2617927;47;19953;-71
2023/12/13 03:03:50;;;;;;;;;;;9.00;99.90;;;;;;2617744;54;19950;-71
2023/12/13 03:06:19;;;;;;;;;;;9.00;99.90;;;;;;2617712;54;19945;-71
2023/12/13 03:08:51;;;;;;;;;;;9.00;99.90;;;;;;2617232;54;20460;-71
2023/12/13 03:11:22;;;;;;;;;;;8.90;99.90;;;;;;2618632;39;20330;-70
2023/12/13 03:13:51;;;;;;;;;;;9.00;99.90;;;;;;2617593;47;19949;-70
2023/12/13 03:16:21;;;;;;;;;;;8.90;99.90;;;;;;2617036;47;19947;-70
2023/12/13 03:18:53;;;;;;;;;;;8.90;99.90;;;;;;2617288;54;19935;-70
2023/12/13 03:21:22;;;;;;;;;;;8.90;99.90;;;;;;2617827;54;19947;-70
2023/12/13 03:23:55;;;;;;;;;;;8.90;99.90;;;;;;2616173;54;19953;-71
2023/12/13 03:26:27;;;;;;;;;;;8.90;99.90;;;;;;2617642;54;19939;-70
2023/12/13 03:28:57;;;;;;;;;;;8.90;99.90;;;;;;2617696;54;19945;-71
2023/12/13 03:31:26;;;;;;;;;;;8.90;99.90;;;;;;2617782;54;19954;-70
2023/12/13 03:33:57;;;;;;;;;;;8.90;99.90;;;;;;2617330;39;20430;-70
2023/12/13 03:36:26;;;;;;;;;;;8.90;99.90;;;;;;2617605;47;19965;-70
2023/12/13 03:38:59;;;;;;;;;;;8.80;99.90;;;;;;2616745;54;19945;-71
2023/12/13 03:41:28;;;;;;;;;;;8.80;99.90;;;;;;2617543;54;19939;-69
2023/12/13 03:43:58;;;;;;;;;;;8.70;99.90;;;;;;2616735;54;19939;-70
2023/12/13 03:46:27;;;;;;;;;;;8.80;99.90;;;;;;2617179;54;19954;-70
2023/12/13 03:48:57;;;;;;;;;;;8.80;99.90;;;;;;2617515;54;19969;-70
2023/12/13 03:51:27;;;;;;;;;;;8.80;99.90;;;;;;2615824;47;19934;-70
2023/12/13 03:53:59;;;;;;;;;;;8.80;99.90;;;;;;2615281;54;19947;-70
2023/12/13 03:56:29;;;;;;;;;;;8.80;99.90;;;;;;2616982;47;19938;-70
2023/12/13 03:58:59;;;;;;;;;;;8.80;99.90;;;;;;2617601;54;19939;-70
2023/12/13 04:01:29;;;;;;;;;;;8.80;99.90;;;;;;2616727;54;19953;-70
2023/12/13 04:03:59;;;;;;;;;;;8.80;99.90;;;;;;2615766;47;19950;-70
2023/12/13 04:06:28;;;;;;;;;;;8.80;99.90;;;;;;2617537;54;19955;-70
2023/12/13 04:09:01;;;;;;;;;;;8.80;99.90;;;;;;2617001;54;19938;-70
2023/12/13 04:11:30;;;;;;;;;;;8.80;99.90;;;;;;2617035;54;20440;-70
2023/12/13 04:14:00;;;;;;;;;;;8.80;99.90;;;;;;2616552;54;19954;-71
2023/12/13 04:16:30;;;;;;;;;;;8.80;99.90;;;;;;2617808;54;19951;-71
2023/12/13 04:18:59;;;;;;;;;;;8.80;99.90;;;;;;2616372;54;20662;-70
2023/12/13 04:21:29;;;;;;;;;;;8.80;99.90;;;;;;2616403;54;19959;-71
2023/12/13 04:24:02;;;;;;;;;;;8.80;99.90;;;;;;2615946;46;19974;-71
2023/12/13 04:26:31;;;;;;;;;;;8.80;99.90;;;;;;2617622;54;19939;-71
2023/12/13 04:29:01;;;;;;;;;;;8.80;99.90;;;;;;2617037;54;19939;-71
2023/12/13 04:31:31;;;;;;;;;;;8.80;99.90;;;;;;2617251;54;19969;-71
2023/12/13 04:34:00;;;;;;;;;;;8.80;99.90;;;;;;2615897;54;19977;-71
2023/12/13 04:36:30;;;;;;;;;;;8.90;99.90;;;;;;2617589;54;19939;-71
2023/12/13 04:39:03;;;;;;;;;;;8.90;99.90;;;;;;2615990;54;19956;-70
2023/12/13 04:41:32;;;;;;;;;;;8.90;99.90;;;;;;2617224;39;20353;-70
2023/12/13 04:44:02;;;;;;;;;;;8.90;99.90;;;;;;2616870;47;20441;-70
2023/12/13 04:46:32;;;;;;;;;;;8.90;99.90;;;;;;2616434;54;19954;-70
2023/12/13 04:49:01;;;;;;;;;;;8.90;99.90;;;;;;2614340;54;19934;-70
2023/12/13 04:51:31;;;;;;;;;;;9.10;99.90;;;;;;2616823;54;20434;-70
2023/12/13 04:54:03;;;;;;;;;;;8.90;99.90;;;;;;2613985;54;19958;-70
2023/12/13 04:56:33;;;;;;;;;;;8.90;99.90;;;;;;2619257;54;19947;-71
2023/12/13 04:59:03;;;;;;;;;;;8.90;99.90;;;;;;2617504;54;19972;-72
2023/12/13 05:01:32;;;;;;;;;;;8.90;99.90;;;;;;2615990;46;19942;-69
2023/12/13 05:04:02;;;;;;;;;;;8.90;99.90;;;;;;2615197;47;19938;-71
2023/12/13 05:06:32;;;;;;;;;;;8.90;99.90;;;;;;2613132;39;20364;-71
2023/12/13 05:09:04;;;;;;;;;;;8.90;99.90;;;;;;2613726;47;20501;-71
2023/12/13 05:11:34;;;;;;;;;;;8.80;99.90;;;;;;2616331;54;19946;-72
2023/12/13 05:14:03;;;;;;;;;;;8.80;99.90;;;;;;2616096;39;20354;-72
2023/12/13 05:16:33;;;;;;;;;;;8.80;99.90;;;;;;2612906;54;19950;-70
2023/12/13 05:19:03;;;;;;;;;;;8.30;99.90;;;;;;2616465;54;21129;-73
2023/12/13 05:21:33;;;;;;;;;;;8.80;99.90;;;;;;2616944;54;19947;-73
2023/12/13 05:24:05;;;;;;;;;;;8.80;99.90;;;;;;2615422;54;20018;-70
2023/12/13 05:26:35;;;;;;;;;;;8.80;99.90;;;;;;2618738;47;20003;-70
2023/12/13 05:29:05;;;;;;;;;;;8.80;99.90;;;;;;2616956;39;20368;-71
2023/12/13 05:31:35;;;;;;;;;;;8.80;99.90;;;;;;2617868;39;20361;-70
2023/12/13 05:34:05;;;;;;;;;;;8.80;99.90;;;;;;2620517;47;19958;-69
2023/12/13 05:36:35;;;;;;;;;;;8.80;99.90;;;;;;2628854;47;19982;-71
2023/12/13 05:39:07;;;;;;;;;;;8.80;99.90;;;;;;2627838;54;19935;-69
2023/12/13 05:41:37;;;;;;;;;;;8.70;99.90;;;;;;2623505;54;19934;-70
2023/12/13 05:44:07;;;;;;;;;;;8.70;99.90;;;;;;2617333;54;20506;-70
2023/12/13 05:46:36;;;;;;;;;;;8.70;99.90;;;;;;2617321;54;20038;-70
2023/12/13 05:49:06;;;;;;;;;;;8.70;99.90;;;;;;2616159;54;20032;-72
2023/12/13 05:51:40;;;;;;;;;;;8.70;99.90;;;;;;2616367;54;20092;-70
2023/12/13 05:54:13;;;;;;;;;;;8.70;99.90;;;;;;2614466;47;19950;-70
2023/12/13 05:56:42;;;;;;;;;;;8.70;99.90;;;;;;2616358;54;19958;-71
2023/12/13 05:59:13;;;;;;;;;;;8.70;99.90;;;;;;2615779;47;20064;-71
2023/12/13 06:01:43;;;;;;;;;;;8.70;99.90;;;;;;2615108;54;19983;-72
2023/12/13 06:04:12;;;;;;;;;;;8.70;99.90;;;;;;2614133;47;19939;-72
2023/12/13 06:06:45;;;;;;;;;;;8.70;99.90;;;;;;2614875;47;19958;-72
2023/12/13 06:09:18;;;;;;;;;;;8.70;99.90;;;;;;2614543;52;19946;-73
2023/12/13 06:11:47;;;;;;;;;;;8.70;99.90;;;;;;2614618;54;20034;-72
2023/12/13 06:14:17;;;;;;;;;;;10.00;99.90;;;;;;2616305;54;20043;-71
2023/12/13 06:16:47;;;;;;;;;;;8.60;99.90;;;;;;2616120;47;19946;-71
2023/12/13 06:19:17;;;;;;;;;;;8.70;99.90;;;;;;2616728;47;19942;-71
2023/12/13 06:21:47;;;;;;;;;;;8.70;99.90;;;;;;2617618;54;19947;-72
2023/12/13 06:24:19;;;;;;;;;;;8.60;99.90;;;;;;2617494;54;19939;-74
2023/12/13 06:26:49;;;;;;;;;;;8.70;99.90;;;;;;2617578;47;19945;-71
2023/12/13 06:29:19;;;;;;;;;;;8.70;99.90;;;;;;2618240;39;20381;-70
2023/12/13 06:31:49;;;;;;;;;;;8.70;99.90;;;;;;2617661;51;19938;-71
2023/12/13 06:34:18;;;;;;;;;;;8.70;99.90;;;;;;2617399;54;19946;-71
2023/12/13 06:36:49;;;;;;;;;;;8.70;99.90;;;;;;2617510;47;19947;-71
2023/12/13 06:39:21;;;;;;;;;;;8.70;99.90;;;;;;2617292;54;19939;-71
2023/12/13 06:41:51;;;;;;;;;;;8.70;99.90;;;;;;2617734;39;20535;-71
2023/12/13 06:44:21;;;;;;;;;;;8.80;99.90;;;;;;2618044;47;19958;-71
2023/12/13 06:46:51;;;;;;;;;;;8.70;99.90;;;;;;2617667;54;20029;-71
2023/12/13 06:49:22;;;;;;;;;;;8.80;99.90;;;;;;2617861;54;19991;-71
2023/12/13 06:51:53;;;;;;;;;;;8.80;99.90;;;;;;2616725;47;19935;-71
2023/12/13 06:54:25;;;;;;;;;;;8.80;99.90;;;;;;2617842;39;20377;-71
2023/12/13 06:56:54;;;;;;;;;;;8.80;99.90;;;;;;2617713;54;19939;-71
2023/12/13 06:59:24;;;;;;;;;;;8.80;99.90;;;;;;2618165;54;20438;-70
2023/12/13 07:01:54;;;;;;;;;;;8.80;99.90;;;;;;2622419;47;19966;-70
2023/12/13 07:04:24;;;;;;;;;;;8.90;99.90;;;;;;2618407;54;19947;-71
2023/12/13 07:06:58;;;;;;;;;;;8.90;99.90;;;;;;2618050;47;19943;-71
2023/12/13 07:09:31;;;;;;;;;;;8.90;99.90;;;;;;2617078;54;19986;-69
2023/12/13 07:12:00;;;;;;;;;;;8.90;99.90;;;;;;2616919;49;19974;-69
2023/12/13 07:14:30;;;;;;;;;;;8.90;99.90;;;;;;2617933;54;19938;-69
2023/12/13 07:17:00;;;;;;;;;;;9.00;99.90;;;;;;2617967;47;19982;-72
2023/12/13 07:19:30;;;;;;;;;;;9.00;99.90;;;;;;2617965;39;20365;-69
2023/12/13 07:22:00;;;;;;;;;;;9.00;99.90;;;;;;2617165;54;19946;-69
2023/12/13 07:24:32;;;;;;;;;;;9.10;99.90;;;;;;2616924;54;20038;-68
2023/12/13 07:27:02;;;;;;;;;;;9.10;99.90;;;;;;2617380;54;19943;-68
2023/12/13 07:29:33;;;;;;;;;;;9.10;99.90;;;;;;2617311;54;19954;-68
2023/12/13 07:32:04;;;;;;;;;;;9.10;99.90;;;;;;2616803;54;19981;-68
2023/12/13 07:34:34;;;;;;;;;;;9.10;99.90;;;;;;2616386;39;20594;-67
2023/12/13 07:37:03;;;;;;;;;;;9.10;99.90;;;;;;2617315;54;20025;-68
2023/12/13 07:39:36;;;;;;;;;;;9.20;99.90;;;;;;2617124;39;20468;-67
2023/12/13 07:42:06;;;;;;;;;;;9.20;99.90;;;;;;2616659;54;19946;-67
2023/12/13 07:44:37;;;;;;;;;;;9.20;99.90;;;;;;2617345;47;19962;-67
2023/12/13 07:47:07;;;;;;;;;;;9.20;99.90;;;;;;2616051;47;20450;-67
2023/12/13 07:49:37;;;;;;;;;;;9.20;99.90;;;;;;2616734;54;20006;-70
2023/12/13 07:52:07;;;;;;;;;;;9.20;99.90;;;;;;2616493;47;19947;-72
2023/12/13 07:54:40;;;;;;;;;;;9.20;99.90;;;;;;2616314;54;20022;-70
2023/12/13 07:57:09;;;;;;;;;;;9.30;99.90;;;;;;2616302;54;19939;-70
2023/12/13 07:59:40;;;;;;;;;;;9.30;99.90;;;;;;2617233;47;19946;-70
2023/12/13 08:02:10;;;;;;;;;;;9.20;99.90;;;;;;2616766;47;19981;-71
2023/12/13 08:04:39;;;;;;;;;;;9.20;99.90;;;;;;2616652;54;19954;-71
2023/12/13 08:07:09;;;;;;;;;;;9.20;99.90;;;;;;2617222;47;19958;-71
2023/12/13 08:09:41;;;;;;;;;;;9.20;99.90;;;;;;2616131;54;19947;-70
2023/12/13 08:12:11;;;;;;;;;;;9.30;99.90;;;;;;2617201;47;19950;-70
2023/12/13 08:14:41;;;;;;;;;;;9.20;99.90;;;;;;2618100;54;20058;-70
2023/12/13 08:17:11;;;;;;;;;;;9.20;99.90;;;;;;2617002;54;20442;-70
2023/12/13 08:19:42;;;;;;;;;;;9.20;99.90;;;;;;2616792;47;20476;-71
2023/12/13 08:22:13;;;;;;;;;;;9.20;99.90;;;;;;2617091;47;19953;-70
2023/12/13 08:24:45;;;;;;;;;;;9.20;99.90;;;;;;2616460;47;19947;-71
2023/12/13 08:27:16;;;;;;;;;;;9.20;99.90;;;;;;2616256;54;19981;-71
2023/12/13 08:29:45;;;;;;;;;;;9.20;99.90;;;;;;2614906;54;19946;-71
2023/12/13 08:32:15;;;;;;;;;;;9.20;99.90;;;;;;2615694;54;19977;-71
2023/12/13 08:34:45;;;;;;;;;;;9.20;99.90;;;;;;2616769;47;19947;-70
2023/12/13 08:37:15;;;;;;;;;;;9.20;99.90;;;;;;2617037;54;20089;-71
2023/12/13 08:39:48;;;;;;;;;;;9.20;99.90;;;;;;2616413;47;19953;-70
2023/12/13 08:42:19;;;;;;;;;;;9.20;99.90;;;;;;2616795;54;19943;-71
2023/12/13 08:44:49;;;;;;;;;;;9.20;99.90;;;;;;2617629;47;19999;-71
2023/12/13 08:47:21;;;;;;;;;;;9.20;99.90;;;;;;2617565;47;20081;-71
2023/12/13 08:49:52;;;;;;;;;;;9.30;99.90;;;;;;2617891;54;20444;-71
2023/12/13 08:52:22;;;;;;;;;;;9.30;99.90;;;;;;2617161;53;19959;-71
2023/12/13 08:54:54;;;;;;;;;;;9.30;99.90;;;;;;2616818;39;20369;-69
2023/12/13 08:57:24;;;;;;;;;;;9.30;99.90;;;;;;2617628;54;20437;-70
2023/12/13 08:59:54;;;;;;;;;;;9.40;99.90;;;;;;2617705;46;19962;-70
2023/12/13 09:02:34;;;;;;;;;;;9.40;99.90;;;;;;2615956;47;19951;-70
2023/12/13 09:05:04;;;;;;;;;;;9.40;99.90;;;;;;2616596;54;19958;-72
2023/12/13 09:07:34;;;;;;;;;;;9.40;99.90;;;;;;2618052;31;20415;-70
2023/12/13 09:10:08;;;;;;;;;;;9.40;99.90;;;;;;2615969;54;19947;-69
2023/12/13 09:12:39;;;;;;;;;;;9.50;99.90;;;;;;2617559;54;19989;-69
2023/12/13 09:15:08;;;;;;;;;;;9.50;99.90;;;;;;2617361;47;19965;-70
2023/12/13 09:17:40;;;;;;;;;;;9.40;99.90;;;;;;2617585;54;19954;-71
2023/12/13 09:20:14;;;;;;;;;;;9.50;99.90;;;;;;2616008;54;19942;-72
2023/12/13 09:22:45;;;;;;;;;;;9.50;99.90;;;;;;2615995;54;19947;-72
2023/12/13 09:25:17;;;;;;;;;;;9.50;99.90;;;;;;2615673;47;19939;-71
2023/12/13 09:27:49;;;;;;;;;;;9.50;99.90;;;;;;2617198;47;19946;-70
2023/12/13 09:30:19;;;;;;;;;;;9.50;99.90;;;;;;2616856;47;20059;-72
2023/12/13 09:32:49;;;;;;;;;;;9.50;99.90;;;;;;2616808;47;19939;-72
2023/12/13 09:35:19;;;;;;;;;;;11.70;99.90;;;;;;2616331;54;19942;-71
2023/12/13 09:37:50;;;;;;;;;;;9.60;99.90;;;;;;2616928;54;19954;-72
2023/12/13 09:40:22;;;;;;;;;;;9.60;99.90;;;;;;2615520;54;20430;-70
2023/12/13 09:42:52;;;;;;;;;;;9.70;99.90;;;;;;2616387;54;19946;-70
2023/12/13 09:45:23;;;;;;;;;;;9.70;99.90;;;;;;2616841;54;19946;-70
2023/12/13 09:47:55;;;;;;;;;;;9.70;99.90;;;;;;2616866;54;19935;-71
2023/12/13 09:50:26;;;;;;;;;;;9.70;99.90;;;;;;2616298;47;19942;-73
2023/12/13 09:52:57;;;;;;;;;;;9.80;99.90;;;;;;2616520;54;19941;-71
2023/12/13 09:55:30;;;;;;;;;;;9.80;99.90;;;;;;2616902;54;19947;-71
2023/12/13 09:58:00;;;;;;;;;;;9.80;99.90;;;;;;2616478;54;19962;-72
2023/12/13 10:00:30;;;;;;;;;;;9.90;99.90;;;;;;2616573;54;19969;-72
2023/12/13 10:02:59;;;;;;;;;;;9.90;99.90;;;;;;2617327;54;19950;-70
2023/12/13 10:05:30;;;;;;;;;;;10.00;99.90;;;;;;2617618;47;19946;-71
2023/12/13 10:08:02;;;;;;;;;;;10.00;99.90;;;;;;2617688;54;19978;-72
2023/12/13 10:10:35;;;;;;;;;;;10.00;99.90;;;;;;2617108;47;19946;-72
2023/12/13 10:13:06;;;;;;;;;;;10.10;99.90;;;;;;2617554;54;19953;-71
2023/12/13 10:15:36;;;;;;;;;;;10.10;99.90;;;;;;2617606;47;19971;-71
2023/12/13 10:18:06;;;;;;;;;;;10.10;99.90;;;;;;2617425;54;20054;-71
2023/12/13 10:20:36;;;;;;;;;;;10.10;99.90;;;;;;2616591;47;19997;-71
2023/12/13 10:23:06;;;;;;;;;;;10.10;99.90;;;;;;2617199;54;19942;-73
2023/12/13 10:25:41;;;;;;;;;;;10.10;99.90;;;;;;2617025;54;19947;-71
2023/12/13 10:28:11;;;;;;;;;;;10.10;99.90;;;;;;2617413;54;19943;-72
2023/12/13 10:30:41;;;;;;;;;;;10.10;99.90;;;;;;2617564;47;19966;-71
2023/12/13 10:33:11;;;;;;;;;;;10.10;99.90;;;;;;2617004;54;19942;-71
2023/12/13 10:35:41;;;;;;;;;;;10.10;99.90;;;;;;2617676;54;20065;-70
2023/12/13 10:38:14;;;;;;;;;;;10.10;99.90;;;;;;2618203;54;19942;-71
2023/12/13 10:40:47;;;;;;;;;;;10.20;99.90;;;;;;2618212;54;19986;-71
2023/12/13 10:43:18;;;;;;;;;;;10.20;99.90;;;;;;2617746;50;19950;-71
2023/12/13 10:45:52;;;;;;;;;;;10.30;99.90;;;;;;2618093;54;19946;-70
2023/12/13 10:48:25;;;;;;;;;;;10.30;99.90;;;;;;2616935;54;20041;-70
2023/12/13 10:50:59;;;;;;;;;;;10.30;99.90;;;;;;2617444;54;20444;-72
2023/12/13 10:53:29;;;;;;;;;;;10.30;99.90;;;;;;2617960;47;20418;-71
2023/12/13 10:56:02;;;;;;;;;;;10.40;99.90;;;;;;2616721;47;19951;-71
2023/12/13 10:58:32;;;;;;;;;;;10.50;99.90;;;;;;2617999;54;19954;-70
2023/12/13 11:01:03;;;;;;;;;;;10.60;99.90;;;;;;2617324;47;20480;-70
2023/12/13 11:03:36;;;;;;;;;;;10.70;99.90;;;;;;2616901;54;19970;-70
2023/12/13 11:06:06;;;;;;;;;;;10.70;99.90;;;;;;2617179;54;19946;-70
2023/12/13 11:08:40;;;;;;;;;;;10.80;99.90;;;;;;2617463;54;20150;-70
2023/12/13 11:11:13;;;;;;;;;;;10.90;99.90;;;;;;2616882;54;19959;-70
2023/12/13 11:13:49;;;;;;;;;;;10.80;99.90;;;;;;2617046;54;19951;-69
2023/12/13 11:16:21;;;;;;;;;;;10.80;99.90;;;;;;2616520;54;19954;-70
2023/12/13 11:18:52;;;;;;;;;;;10.80;99.90;;;;;;2616485;54;20694;-70
2023/12/13 11:21:25;;;;;;;;;;;10.80;99.90;;;;;;2617329;39;20369;-71
2023/12/13 11:23:57;;;;;;;;;;;10.80;99.90;;;;;;2616147;54;19942;-70
2023/12/13 11:26:32;;;;;;;;;;;10.80;99.90;;;;;;2617917;54;19953;-70
2023/12/13 11:29:02;;;;;;;;;;;10.80;99.90;;;;;;2619274;54;19954;-70
2023/12/13 11:31:32;;;;;;;;;;;10.80;99.90;;;;;;2618646;47;19939;-69
2023/12/13 11:34:02;;;;;;;;;;;10.80;99.90;;;;;;2620099;54;19946;-69
2023/12/13 11:36:33;;;;;;;;;;;10.70;99.90;;;;;;2622223;54;19939;-69
2023/12/13 11:39:09;;;;;;;;;;;10.70;99.90;;;;;;2619946;54;19945;-69
2023/12/13 11:41:42;;;;;;;;;;;10.70;99.90;;;;;;2619124;54;20014;-70
2023/12/13 11:44:12;;;;;;;;;;;10.70;99.90;;;;;;2617743;54;20422;-70
2023/12/13 11:46:41;;;;;;;;;;;10.70;99.90;;;;;;2616833;54;19942;-71
2023/12/13 11:49:11;;;;;;;;;;;10.70;99.90;;;;;;2615900;54;19938;-70
2023/12/13 11:51:41;;;;;;;;;;;10.80;99.90;;;;;;2616732;54;19938;-71
2023/12/13 11:54:11;;;;;;;;;;;10.80;99.90;;;;;;2615918;54;19961;-71
2023/12/13 11:56:45;;;;;;;;;;;10.80;99.90;;;;;;2616790;54;20042;-72
2023/12/13 11:59:15;;;;;;;;;;;10.80;99.90;;;;;;2616181;54;19961;-72
2023/12/13 12:01:45;;;;;;;;;;;10.80;99.90;;;;;;2616494;47;19946;-72
2023/12/13 12:04:15;;;;;;;;;;;10.90;99.90;;;;;;2616721;47;19943;-72
2023/12/13 12:06:47;;;;;;;;;;;10.90;99.90;;;;;;2616935;54;19958;-70
2023/12/13 12:09:17;;;;;;;;;;;11.00;99.90;;;;;;2615217;54;19954;-72
2023/12/13 12:11:53;;;;;;;;;;;11.00;99.90;;;;;;2617493;31;20437;-72
2023/12/13 12:14:27;;;;;;;;;;;11.10;99.90;;;;;;2616487;39;20010;-74
2023/12/13 12:16:57;;;;;;;;;;;11.10;99.90;;;;;;2616878;47;19934;-74
2023/12/13 12:19:28;;;;;;;;;;;11.10;99.90;;;;;;2616039;54;19935;-71
2023/12/13 12:21:57;;;;;;;;;;;11.10;99.90;;;;;;2617037;47;19947;-72
2023/12/13 12:24:28;;;;;;;;;;;11.10;99.90;;;;;;2616068;54;19946;-71
2023/12/13 12:27:11;;;;;;;;;;;11.10;99.90;;;;;;2617255;47;19946;-71
2023/12/13 12:29:41;;;;;;;;;;;11.10;99.90;;;;;;2616804;54;19950;-70
2023/12/13 12:32:11;;;;;;;;;;;11.10;99.90;;;;;;2615661;54;19970;-70
2023/12/13 12:34:43;;;;;;;;;;;11.10;99.90;;;;;;2617056;54;19947;-70
2023/12/13 12:37:14;;;;;;;;;;;11.10;99.90;;;;;;2616849;54;19957;-71
2023/12/13 12:39:44;;;;;;;;;;;11.10;99.90;;;;;;2614572;54;19946;-71
2023/12/13 12:42:17;;;;;;;;;;;11.00;99.90;;;;;;2615518;54;19998;-71
2023/12/13 12:44:46;;;;;;;;;;;11.00;99.90;;;;;;2616431;54;20037;-71
2023/12/13 12:47:16;;;;;;;;;;;11.00;99.90;;;;;;2615782;54;19990;-71
2023/12/13 12:49:47;;;;;;;;;;;11.00;99.90;;;;;;2617223;54;20026;-71
2023/12/13 12:52:18;;;;;;;;;;;11.00;99.90;;;;;;2615445;54;19946;-71
2023/12/13 12:54:48;;;;;;;;;;;11.00;99.90;;;;;;2615956;39;20356;-72
2023/12/13 12:57:21;;;;;;;;;;;11.10;99.90;;;;;;2616792;39;20365;-71
2023/12/13 12:59:53;;;;;;;;;;;11.10;99.90;;;;;;2616700;47;19998;-71
2023/12/13 13:02:23;;;;;;;;;;;11.10;99.90;;;;;;2616434;54;19945;-71
2023/12/13 13:04:52;;;;;;;;;;;11.10;99.90;;;;;;2615702;54;19962;-71
2023/12/13 13:07:22;;;;;;;;;;;11.10;99.90;;;;;;2615364;47;19971;-71
2023/12/13 13:09:52;;;;;;;;;;;11.30;99.90;;;;;;2614391;54;19957;-72
2023/12/13 13:12:25;;;;;;;;;;;11.00;99.90;;;;;;2614971;39;20814;-70
2023/12/13 13:14:55;;;;;;;;;;;11.10;99.90;;;;;;2614423;47;19963;-72
2023/12/13 13:17:24;;;;;;;;;;;11.10;99.90;;;;;;2612311;47;19980;-71
2023/12/13 13:19:54;;;;;;;;;;;11.10;99.90;;;;;;2615928;54;19958;-71
2023/12/13 13:22:24;;;;;;;;;;;11.10;99.90;;;;;;2616201;39;20354;-71
2023/12/13 13:24:54;;;;;;;;;;;11.10;99.90;;;;;;2614848;54;19953;-71
2023/12/13 13:27:26;;;;;;;;;;;11.10;99.90;;;;;;2615981;54;19946;-72
2023/12/13 13:29:58;;;;;;;;;;;11.00;99.90;;;;;;2618657;54;19950;-72
2023/12/13 13:32:28;;;;;;;;;;;11.10;99.90;;;;;;2617980;46;19962;-71
2023/12/13 13:34:59;;;;;;;;;;;11.10;99.90;;;;;;2618109;54;19947;-71
2023/12/13 13:37:29;;;;;;;;;;;11.10;99.90;;;;;;2615820;47;19951;-71
2023/12/13 13:40:00;;;;;;;;;;;11.10;99.90;;;;;;2615893;54;19970;-70
2023/12/13 13:42:32;;;;;;;;;;;11.20;99.90;;;;;;2617407;39;20537;-72
2023/12/13 13:45:12;;;;;;;;;;;11.20;99.90;;;;;;2617132;54;19939;-71
2023/12/13 13:47:42;;;;;;;;;;;11.30;99.90;;;;;;2618161;39;20468;-70
2023/12/13 13:50:12;;;;;;;;;;;11.30;99.90;;;;;;2615764;54;19969;-70
2023/12/13 13:52:42;;;;;;;;;;;11.30;99.90;;;;;;2617472;54;20403;-71
2023/12/13 13:55:12;;;;;;;;;;;11.30;99.90;;;;;;2615876;54;19942;-71
2023/12/13 13:57:44;;;;;;;;;;;11.30;99.90;;;;;;2617283;54;20449;-71
2023/12/13 14:00:19;;;;;;;;;;;11.40;99.90;;;;;;2617740;54;19946;-72
2023/12/13 14:02:48;;;;;;;;;;;11.40;99.90;;;;;;2618079;54;19958;-72
2023/12/13 14:05:18;;;;;;;;;;;11.40;99.90;;;;;;2616799;54;19970;-72
2023/12/13 14:07:49;;;;;;;;;;;11.50;99.90;;;;;;2617119;47;19959;-72
2023/12/13 14:10:19;;;;;;;;;;;11.50;99.90;;;;;;2615255;54;19950;-70
2023/12/13 14:12:51;;;;;;;;;;;11.50;99.90;;;;;;2617518;54;20099;-71
2023/12/13 14:15:21;;;;;;;;;;;11.50;99.90;;;;;;2616773;54;19947;-70
2023/12/13 14:17:51;;;;;;;;;;;11.50;99.90;;;;;;2618346;54;20070;-71
2023/12/13 14:20:21;;;;;;;;;;;11.50;99.90;;;;;;2616582;54;20429;-71
2023/12/13 14:22:52;;;;;;;;;;;11.40;99.90;;;;;;2615461;54;19954;-70
2023/12/13 14:25:21;;;;;;;;;;;11.40;99.90;;;;;;2616081;54;19962;-71
2023/12/13 14:27:56;;;;;;;;;;;11.30;99.90;;;;;;2617132;54;19955;-71
2023/12/13 14:30:26;;;;;;;;;;;11.30;99.90;;;;;;2616777;46;19954;-72
2023/12/13 14:32:57;;;;;;;;;;;11.30;99.90;;;;;;2618108;54;19941;-70
2023/12/13 14:35:27;;;;;;;;;;;11.30;99.90;;;;;;2617123;47;19946;-71
2023/12/13 14:37:57;;;;;;;;;;;11.20;99.90;;;;;;2617561;54;20506;-73
2023/12/13 14:40:46;;;;;;;;;;;11.20;99.90;;;;;;2614649;54;19997;-71
2023/12/13 14:43:19;;;;;;;;;;;11.10;99.90;;;;;;2612398;54;19958;-70
2023/12/13 14:45:50;;;;;;;;;;;11.10;99.90;;;;;;2614038;54;19953;-71
2023/12/13 14:48:20;;;;;;;;;;;11.00;99.90;;;;;;2614592;54;20449;-71